sensor_id;sensor_type;location;lat;lon;timestamp;pressure;altitude;pressure_sealevel;temperature;humidity
17072;BME280;7731;50.720;6.912;2022-09-29T00:00:00;98531.03;;;6.97;100.00
17072;BME280;7731;50.720;6.912;2022-09-29T00:02:32;98535.56;;;6.92;100.00
17072;BME280;7731;50.720;6.912;2022-09-29T00:05:04;98525.38;;;6.92;100.00
17072;BME280;7731;50.720;6.912;2022-09-29T00:07:37;98528.28;;;6.86;100.00
17072;BME280;7731;50.720;6.912;2022-09-29T00:10:07;98533.19;;;6.89;100.00
17072;BME280;7731;50.720;6.912;2022-09-29T00:12:39;98529.03;;;6.88;100.00
17072;BME280;7731;50.720;6.912;2022-09-29T00:15:10;98529.31;;;6.84;100.00
17072;BME280;7731;50.720;6.912;2022-09-29T00:17:40;98528.75;;;6.78;100.00
17072;BME280;7731;50.720;6.912;2022-09-29T00:20:37;98522.81;;;6.78;100.00
17072;BME280;7731;50.720;6.912;2022-09-29T00:23:10;98527.13;;;6.77;100.00
17072;BME280;7731;50.720;6.912;2022-09-29T00:25:42;98524.84;;;6.73;100.00
17072;BME280;7731;50.720;6.912;2022-09-29T00:28:12;98518.28;;;6.69;100.00
17072;BME280;7731;50.720;6.912;2022-09-29T00:30:45;98525.94;;;6.69;100.00
17072;BME280;7731;50.720;6.912;2022-09-29T00:33:15;98521.38;;;6.59;100.00
17072;BME280;7731;50.720;6.912;2022-09-29T00:35:56;98514.06;;;6.53;100.00
17072;BME280;7731;50.720;6.912;2022-09-29T00:38:30;98521.53;;;6.71;100.00
17072;BME280;7731;50.720;6.912;2022-09-29T00:41:01;98512.44;;;6.81;100.00
17072;BME280;7731;50.720;6.912;2022-09-29T00:43:50;98510.78;;;6.80;100.00
17072;BME280;7731;50.720;6.912;2022-09-29T00:46:37;98516.34;;;6.72;100.00
17072;BME280;7731;50.720;6.912;2022-09-29T00:49:19;98515.53;;;6.57;100.00
17072;BME280;7731;50.720;6.912;2022-09-29T00:51:58;98514.44;;;6.61;100.00
17072;BME280;7731;50.720;6.912;2022-09-29T00:54:37;98520.66;;;6.57;100.00
17072;BME280;7731;50.720;6.912;2022-09-29T00:57:15;98525.84;;;6.56;100.00
17072;BME280;7731;50.720;6.912;2022-09-29T00:59:58;98517.72;;;6.49;100.00
17072;BME280;7731;50.720;6.912;2022-09-29T01:02:37;98519.91;;;6.41;100.00
17072;BME280;7731;50.720;6.912;2022-09-29T01:05:14;98519.91;;;6.41;100.00
17072;BME280;7731;50.720;6.912;2022-09-29T01:07:50;98521.00;;;6.51;100.00
17072;BME280;7731;50.720;6.912;2022-09-29T01:10:26;98524.19;;;6.40;100.00
17072;BME280;7731;50.720;6.912;2022-09-29T01:12:57;98522.44;;;6.41;100.00
17072;BME280;7731;50.720;6.912;2022-09-29T01:15:31;98522.81;;;6.35;100.00
17072;BME280;7731;50.720;6.912;2022-09-29T01:18:02;98518.78;;;6.31;100.00
17072;BME280;7731;50.720;6.912;2022-09-29T01:20:42;98507.28;;;6.23;100.00
17072;BME280;7731;50.720;6.912;2022-09-29T01:27:18;98516.91;;;6.04;100.00
17072;BME280;7731;50.720;6.912;2022-09-29T01:30:14;98526.78;;;6.10;100.00
17072;BME280;7731;50.720;6.912;2022-09-29T01:33:16;98520.38;;;6.03;100.00
17072;BME280;7731;50.720;6.912;2022-09-29T01:36:05;98525.47;;;6.03;100.00
17072;BME280;7731;50.720;6.912;2022-09-29T01:38:53;98527.59;;;6.11;100.00
17072;BME280;7731;50.720;6.912;2022-09-29T01:41:32;98520.91;;;6.08;100.00
17072;BME280;7731;50.720;6.912;2022-09-29T01:44:14;98526.03;;;6.08;100.00
17072;BME280;7731;50.720;6.912;2022-09-29T01:46:50;98524.41;;;6.07;100.00
17072;BME280;7731;50.720;6.912;2022-09-29T01:49:31;98529.03;;;5.84;100.00
17072;BME280;7731;50.720;6.912;2022-09-29T01:52:08;98533.22;;;5.85;100.00
17072;BME280;7731;50.720;6.912;2022-09-29T01:54:51;98532.63;;;5.80;100.00
17072;BME280;7731;50.720;6.912;2022-09-29T01:57:31;98529.97;;;5.67;100.00
17072;BME280;7731;50.720;6.912;2022-09-29T02:00:08;98529.16;;;5.67;100.00
17072;BME280;7731;50.720;6.912;2022-09-29T02:02:45;98530.56;;;5.57;100.00
17072;BME280;7731;50.720;6.912;2022-09-29T02:05:28;98526.34;;;5.55;100.00
17072;BME280;7731;50.720;6.912;2022-09-29T02:08:13;98538.03;;;5.60;100.00
17072;BME280;7731;50.720;6.912;2022-09-29T02:10:51;98529.31;;;5.64;100.00
17072;BME280;7731;50.720;6.912;2022-09-29T02:13:37;98530.22;;;5.63;100.00
17072;BME280;7731;50.720;6.912;2022-09-29T02:16:12;98529.06;;;5.52;100.00
17072;BME280;7731;50.720;6.912;2022-09-29T02:18:52;98531.13;;;5.46;100.00
17072;BME280;7731;50.720;6.912;2022-09-29T02:21:29;98533.75;;;5.44;100.00
17072;BME280;7731;50.720;6.912;2022-09-29T02:24:00;98528.84;;;5.41;100.00
17072;BME280;7731;50.720;6.912;2022-09-29T02:26:33;98534.25;;;5.35;100.00
17072;BME280;7731;50.720;6.912;2022-09-29T02:29:05;98537.47;;;5.23;100.00
17072;BME280;7731;50.720;6.912;2022-09-29T02:31:37;98528.81;;;5.25;100.00
17072;BME280;7731;50.720;6.912;2022-09-29T02:34:15;98531.22;;;5.90;100.00
17072;BME280;7731;50.720;6.912;2022-09-29T02:36:58;98523.63;;;5.59;100.00
17072;BME280;7731;50.720;6.912;2022-09-29T02:39:42;98534.75;;;5.26;100.00
17072;BME280;7731;50.720;6.912;2022-09-29T02:42:29;98533.75;;;5.12;100.00
17072;BME280;7731;50.720;6.912;2022-09-29T02:45:29;98531.06;;;5.15;100.00
17072;BME280;7731;50.720;6.912;2022-09-29T02:48:23;98533.03;;;5.10;100.00
17072;BME280;7731;50.720;6.912;2022-09-29T02:51:12;98535.41;;;5.13;100.00
17072;BME280;7731;50.720;6.912;2022-09-29T02:54:04;98533.59;;;5.15;100.00
17072;BME280;7731;50.720;6.912;2022-09-29T02:56:50;98527.44;;;5.19;100.00
17072;BME280;7731;50.720;6.912;2022-09-29T02:59:32;98532.88;;;5.13;100.00
17072;BME280;7731;50.720;6.912;2022-09-29T03:02:07;98534.41;;;5.00;100.00
17072;BME280;7731;50.720;6.912;2022-09-29T03:04:38;98534.41;;;5.00;100.00
17072;BME280;7731;50.720;6.912;2022-09-29T03:07:08;98534.25;;;5.03;100.00
17072;BME280;7731;50.720;6.912;2022-09-29T03:09:46;98532.44;;;5.05;100.00
17072;BME280;7731;50.720;6.912;2022-09-29T03:12:19;98538.53;;;5.03;100.00
17072;BME280;7731;50.720;6.912;2022-09-29T03:14:49;98531.53;;;5.06;100.00
17072;BME280;7731;50.720;6.912;2022-09-29T03:17:20;98527.34;;;5.05;100.00
17072;BME280;7731;50.720;6.912;2022-09-29T03:19:50;98531.44;;;4.92;100.00
17072;BME280;7731;50.720;6.912;2022-09-29T03:22:20;98528.16;;;4.90;100.00
17072;BME280;7731;50.720;6.912;2022-09-29T03:24:52;98530.22;;;4.99;100.00
17072;BME280;7731;50.720;6.912;2022-09-29T03:27:25;98531.44;;;4.92;100.00
17072;BME280;7731;50.720;6.912;2022-09-29T03:29:55;98534.22;;;4.87;100.00
17072;BME280;7731;50.720;6.912;2022-09-29T03:32:25;98542.09;;;4.82;100.00
17072;BME280;7731;50.720;6.912;2022-09-29T03:34:56;98536.84;;;4.86;100.00
17072;BME280;7731;50.720;6.912;2022-09-29T03:37:29;98540.13;;;4.88;100.00
17072;BME280;7731;50.720;6.912;2022-09-29T03:40:03;98542.75;;;4.86;100.00
17072;BME280;7731;50.720;6.912;2022-09-29T03:42:34;98544.66;;;4.65;100.00
17072;BME280;7731;50.720;6.912;2022-09-29T03:45:05;98544.34;;;4.71;100.00
17072;BME280;7731;50.720;6.912;2022-09-29T03:47:39;98543.94;;;4.63;100.00
17072;BME280;7731;50.720;6.912;2022-09-29T03:50:09;98544.97;;;4.59;100.00
17072;BME280;7731;50.720;6.912;2022-09-29T03:52:39;98553.31;;;4.62;100.00
17072;BME280;7731;50.720;6.912;2022-09-29T03:55:14;98551.56;;;4.63;100.00
17072;BME280;7731;50.720;6.912;2022-09-29T03:57:45;98558.00;;;4.70;100.00
17072;BME280;7731;50.720;6.912;2022-09-29T04:00:15;98553.06;;;4.67;100.00
17072;BME280;7731;50.720;6.912;2022-09-29T04:02:45;98558.31;;;4.64;100.00
17072;BME280;7731;50.720;6.912;2022-09-29T04:05:15;98549.59;;;4.68;100.00
17072;BME280;7731;50.720;6.912;2022-09-29T04:07:46;98565.03;;;4.65;100.00
17072;BME280;7731;50.720;6.912;2022-09-29T04:10:19;98562.34;;;4.51;100.00
17072;BME280;7731;50.720;6.912;2022-09-29T04:12:49;98570.25;;;4.62;100.00
17072;BME280;7731;50.720;6.912;2022-09-29T04:15:25;98569.38;;;4.63;100.00
17072;BME280;7731;50.720;6.912;2022-09-29T04:17:56;98565.59;;;4.88;100.00
17072;BME280;7731;50.720;6.912;2022-09-29T04:20:26;98566.91;;;4.95;100.00
17072;BME280;7731;50.720;6.912;2022-09-29T04:22:56;98574.09;;;4.87;100.00
17072;BME280;7731;50.720;6.912;2022-09-29T04:25:29;98579.34;;;4.83;100.00
17072;BME280;7731;50.720;6.912;2022-09-29T04:28:00;98577.13;;;4.77;100.00
17072;BME280;7731;50.720;6.912;2022-09-29T04:30:30;98581.59;;;4.56;100.00
17072;BME280;7731;50.720;6.912;2022-09-29T04:33:00;98578.13;;;4.57;100.00
17072;BME280;7731;50.720;6.912;2022-09-29T04:35:45;98574.56;;;4.77;100.00
17072;BME280;7731;50.720;6.912;2022-09-29T04:38:15;98576.34;;;4.93;100.00
17072;BME280;7731;50.720;6.912;2022-09-29T04:40:51;98572.81;;;4.95;100.00
17072;BME280;7731;50.720;6.912;2022-09-29T04:43:21;98572.47;;;4.86;100.00
17072;BME280;7731;50.720;6.912;2022-09-29T04:46:04;98574.88;;;4.71;100.00
17072;BME280;7731;50.720;6.912;2022-09-29T04:48:41;98574.09;;;4.87;100.00
17072;BME280;7731;50.720;6.912;2022-09-29T04:51:14;98576.66;;;4.87;100.00
17072;BME280;7731;50.720;6.912;2022-09-29T04:53:44;98579.22;;;4.69;100.00
17072;BME280;7731;50.720;6.912;2022-09-29T04:56:17;98581.50;;;4.58;100.00
17072;BME280;7731;50.720;6.912;2022-09-29T04:58:50;98584.66;;;4.45;100.00
17072;BME280;7731;50.720;6.912;2022-09-29T05:01:28;98583.59;;;4.50;100.00
17072;BME280;7731;50.720;6.912;2022-09-29T05:03:59;98589.06;;;4.42;100.00
17072;BME280;7731;50.720;6.912;2022-09-29T05:06:29;98584.66;;;4.45;100.00
17072;BME280;7731;50.720;6.912;2022-09-29T05:08:59;98590.56;;;4.46;100.00
17072;BME280;7731;50.720;6.912;2022-09-29T05:11:35;98597.66;;;4.57;100.00
17072;BME280;7731;50.720;6.912;2022-09-29T05:14:07;98590.47;;;4.65;100.00
17072;BME280;7731;50.720;6.912;2022-09-29T05:16:40;98599.13;;;4.78;100.00
17072;BME280;7731;50.720;6.912;2022-09-29T05:19:11;98604.91;;;4.64;100.00
17072;BME280;7731;50.720;6.912;2022-09-29T05:21:41;98606.78;;;4.94;100.00
17072;BME280;7731;50.720;6.912;2022-09-29T05:24:12;98603.22;;;5.14;100.00
17072;BME280;7731;50.720;6.912;2022-09-29T05:26:45;98606.22;;;5.23;100.00
17072;BME280;7731;50.720;6.912;2022-09-29T05:29:15;98613.41;;;5.14;100.00
17072;BME280;7731;50.720;6.912;2022-09-29T05:31:49;98605.03;;;5.12;100.00
17072;BME280;7731;50.720;6.912;2022-09-29T05:34:19;98609.72;;;5.04;100.00
17072;BME280;7731;50.720;6.912;2022-09-29T05:36:50;98612.88;;;4.92;100.00
17072;BME280;7731;50.720;6.912;2022-09-29T05:39:20;98616.47;;;4.88;100.00
17072;BME280;7731;50.720;6.912;2022-09-29T05:41:55;98616.31;;;4.91;100.00
17072;BME280;7731;50.720;6.912;2022-09-29T05:44:26;98614.91;;;5.18;100.00
17072;BME280;7731;50.720;6.912;2022-09-29T05:46:59;98605.25;;;5.41;100.00
17072;BME280;7731;50.720;6.912;2022-09-29T05:49:29;98610.84;;;5.64;100.00
17072;BME280;7731;50.720;6.912;2022-09-29T05:52:00;98611.47;;;5.83;100.00
17072;BME280;7731;50.720;6.912;2022-09-29T05:54:30;98616.81;;;5.79;100.00
17072;BME280;7731;50.720;6.912;2022-09-29T05:57:05;98614.78;;;5.69;100.00
17072;BME280;7731;50.720;6.912;2022-09-29T05:59:35;98614.28;;;5.63;100.00
17072;BME280;7731;50.720;6.912;2022-09-29T06:02:09;98615.75;;;5.35;100.00
17072;BME280;7731;50.720;6.912;2022-09-29T06:04:39;98620.03;;;5.50;100.00
17072;BME280;7731;50.720;6.912;2022-09-29T06:07:12;98617.56;;;5.65;100.00
17072;BME280;7731;50.720;6.912;2022-09-29T06:09:42;98621.16;;;5.45;100.00
17072;BME280;7731;50.720;6.912;2022-09-29T06:12:16;98627.59;;;5.68;100.00
17072;BME280;7731;50.720;6.912;2022-09-29T06:14:48;98622.31;;;5.71;100.00
17072;BME280;7731;50.720;6.912;2022-09-29T06:17:20;98627.44;;;5.71;100.00
17072;BME280;7731;50.720;6.912;2022-09-29T06:19:50;98627.09;;;5.77;100.00
17072;BME280;7731;50.720;6.912;2022-09-29T06:22:20;98626.59;;;5.86;100.00
17072;BME280;7731;50.720;6.912;2022-09-29T06:24:53;98626.28;;;6.08;100.00
17072;BME280;7731;50.720;6.912;2022-09-29T06:27:26;98633.00;;;6.25;100.00
17072;BME280;7731;50.720;6.912;2022-09-29T06:29:57;98628.38;;;6.32;100.00
17072;BME280;7731;50.720;6.912;2022-09-29T06:32:27;98634.59;;;6.73;100.00
17072;BME280;7731;50.720;6.912;2022-09-29T06:34:57;98632.22;;;6.70;100.00
17072;BME280;7731;50.720;6.912;2022-09-29T06:37:44;98630.22;;;6.75;100.00
17072;BME280;7731;50.720;6.912;2022-09-29T06:40:17;98633.41;;;7.22;100.00
17072;BME280;7731;50.720;6.912;2022-09-29T06:42:56;98637.00;;;7.19;100.00
17072;BME280;7731;50.720;6.912;2022-09-29T06:45:26;98644.66;;;7.19;100.00
17072;BME280;7731;50.720;6.912;2022-09-29T06:48:02;98640.41;;;7.61;100.00
17072;BME280;7731;50.720;6.912;2022-09-29T06:50:34;98636.97;;;7.48;100.00
17072;BME280;7731;50.720;6.912;2022-09-29T06:53:04;98642.88;;;7.63;100.00
17072;BME280;7731;50.720;6.912;2022-09-29T06:55:37;98645.53;;;7.32;100.00
17072;BME280;7731;50.720;6.912;2022-09-29T06:58:10;98649.56;;;7.51;100.00
17072;BME280;7731;50.720;6.912;2022-09-29T07:00:40;98646.53;;;7.59;100.00
17072;BME280;7731;50.720;6.912;2022-09-29T07:03:17;98655.59;;;7.21;100.00
17072;BME280;7731;50.720;6.912;2022-09-29T07:05:47;98656.13;;;7.26;100.00
17072;BME280;7731;50.720;6.912;2022-09-29T07:08:37;98658.50;;;7.44;100.00
17072;BME280;7731;50.720;6.912;2022-09-29T07:11:09;98654.13;;;7.60;100.00
17072;BME280;7731;50.720;6.912;2022-09-29T07:13:49;98661.31;;;7.54;100.00
17072;BME280;7731;50.720;6.912;2022-09-29T07:16:22;98644.56;;;7.77;100.00
17072;BME280;7731;50.720;6.912;2022-09-29T07:18:52;98666.91;;;7.87;100.00
17072;BME280;7731;50.720;6.912;2022-09-29T07:21:22;98664.47;;;7.86;100.00
17072;BME280;7731;50.720;6.912;2022-09-29T07:23:53;98673.53;;;8.04;100.00
17072;BME280;7731;50.720;6.912;2022-09-29T07:26:28;98673.00;;;7.99;100.00
17072;BME280;7731;50.720;6.912;2022-09-29T07:29:01;98671.31;;;8.40;100.00
17072;BME280;7731;50.720;6.912;2022-09-29T07:31:31;98669.38;;;8.84;100.00
17072;BME280;7731;50.720;6.912;2022-09-29T07:34:16;98665.22;;;9.71;98.59
17072;BME280;7731;50.720;6.912;2022-09-29T07:36:46;98668.41;;;11.85;86.31
17072;BME280;7731;50.720;6.912;2022-09-29T07:39:19;98652.16;;;14.33;75.91
17072;BME280;7731;50.720;6.912;2022-09-29T07:41:53;98658.72;;;13.57;75.92
17072;BME280;7731;50.720;6.912;2022-09-29T07:44:30;98656.91;;;14.08;69.10
17072;BME280;7731;50.720;6.912;2022-09-29T07:47:00;98647.75;;;16.57;61.64
17072;BME280;7731;50.720;6.912;2022-09-29T07:49:30;98658.09;;;15.95;57.78
17072;BME280;7731;50.720;6.912;2022-09-29T07:52:06;98658.09;;;15.67;61.25
17072;BME280;7731;50.720;6.912;2022-09-29T07:54:36;98653.91;;;17.35;57.48
17072;BME280;7731;50.720;6.912;2022-09-29T07:57:07;98655.22;;;17.04;54.06
17072;BME280;7731;50.720;6.912;2022-09-29T07:59:40;98671.78;;;16.23;55.82
17072;BME280;7731;50.720;6.912;2022-09-29T08:02:19;98659.66;;;17.97;50.64
17072;BME280;7731;50.720;6.912;2022-09-29T08:04:55;98665.03;;;16.48;55.58
17072;BME280;7731;50.720;6.912;2022-09-29T08:07:31;98659.53;;;17.64;53.43
17072;BME280;7731;50.720;6.912;2022-09-29T08:10:09;98664.63;;;16.61;53.57
17072;BME280;7731;50.720;6.912;2022-09-29T08:12:44;98652.38;;;18.42;51.07
17072;BME280;7731;50.720;6.912;2022-09-29T08:15:16;98657.09;;;18.38;49.73
17072;BME280;7731;50.720;6.912;2022-09-29T08:17:47;98665.34;;;17.16;54.25
17072;BME280;7731;50.720;6.912;2022-09-29T08:20:17;98662.78;;;19.39;47.29
17072;BME280;7731;50.720;6.912;2022-09-29T08:22:48;98666.13;;;20.80;43.54
17072;BME280;7731;50.720;6.912;2022-09-29T08:25:19;98658.94;;;21.12;41.02
17072;BME280;7731;50.720;6.912;2022-09-29T08:27:49;98669.91;;;19.45;46.86
17072;BME280;7731;50.720;6.912;2022-09-29T08:30:24;98654.97;;;23.94;37.46
17072;BME280;7731;50.720;6.912;2022-09-29T08:32:58;98672.97;;;20.81;43.19
17072;BME280;7731;50.720;6.912;2022-09-29T08:35:40;98684.91;;;19.83;43.57
17072;BME280;7731;50.720;6.912;2022-09-29T08:38:16;98681.34;;;20.92;42.88
17072;BME280;7731;50.720;6.912;2022-09-29T08:40:46;98687.63;;;20.44;42.30
17072;BME280;7731;50.720;6.912;2022-09-29T08:43:25;98675.94;;;21.08;39.48
17072;BME280;7731;50.720;6.912;2022-09-29T08:46:15;98684.06;;;21.28;42.30
17072;BME280;7731;50.720;6.912;2022-09-29T08:49:09;98689.03;;;19.69;44.72
17072;BME280;7731;50.720;6.912;2022-09-29T08:52:05;98690.25;;;18.69;49.05
17072;BME280;7731;50.720;6.912;2022-09-29T08:54:45;98687.63;;;18.78;48.33
17072;BME280;7731;50.720;6.912;2022-09-29T08:57:19;98691.13;;;19.34;48.24
17072;BME280;7731;50.720;6.912;2022-09-29T08:59:54;98692.50;;;19.05;48.84
17072;BME280;7731;50.720;6.912;2022-09-29T09:03:13;98689.13;;;19.84;46.38
17072;BME280;7731;50.720;6.912;2022-09-29T09:06:15;98693.88;;;20.35;45.28
17072;BME280;7731;50.720;6.912;2022-09-29T09:12:21;98696.63;;;19.48;47.51
17072;BME280;7731;50.720;6.912;2022-09-29T09:15:16;98703.28;;;20.44;44.29
17072;BME280;7731;50.720;6.912;2022-09-29T09:18:14;98710.06;;;18.37;47.81
17072;BME280;7731;50.720;6.912;2022-09-29T09:20:57;98704.78;;;19.36;45.66
17072;BME280;7731;50.720;6.912;2022-09-29T09:23:41;98700.22;;;19.86;44.93
17072;BME280;7731;50.720;6.912;2022-09-29T09:26:35;98705.78;;;19.83;44.88
17072;BME280;7731;50.720;6.912;2022-09-29T09:29:18;98694.53;;;21.94;40.57
17072;BME280;7731;50.720;6.912;2022-09-29T09:31:57;98701.81;;;21.33;40.83
17072;BME280;7731;50.720;6.912;2022-09-29T09:34:39;98706.75;;;20.13;42.61
17072;BME280;7731;50.720;6.912;2022-09-29T09:37:23;98706.22;;;17.48;50.94
17072;BME280;7731;50.720;6.912;2022-09-29T09:39:59;98704.19;;;18.77;46.79
17072;BME280;7731;50.720;6.912;2022-09-29T09:42:35;98712.09;;;17.58;48.98
17072;BME280;7731;50.720;6.912;2022-09-29T09:45:16;98697.88;;;19.52;45.72
17072;BME280;7731;50.720;6.912;2022-09-29T09:47:54;98703.41;;;19.57;46.46
17072;BME280;7731;50.720;6.912;2022-09-29T09:50:30;98711.38;;;18.42;48.11
17072;BME280;7731;50.720;6.912;2022-09-29T09:53:04;98698.69;;;19.92;43.59
17072;BME280;7731;50.720;6.912;2022-09-29T09:55:41;98703.88;;;18.80;46.87
17072;BME280;7731;50.720;6.912;2022-09-29T10:01:14;98697.72;;;18.72;45.65
17072;BME280;7731;50.720;6.912;2022-09-29T10:03:44;98699.19;;;18.59;46.44
17072;BME280;7731;50.720;6.912;2022-09-29T10:06:19;98708.31;;;17.87;49.65
17072;BME280;7731;50.720;6.912;2022-09-29T10:08:49;98691.03;;;21.87;37.02
17072;BME280;7731;50.720;6.912;2022-09-29T10:11:24;98693.16;;;21.47;38.94
17072;BME280;7731;50.720;6.912;2022-09-29T10:14:01;98694.06;;;21.54;38.49
17072;BME280;7731;50.720;6.912;2022-09-29T10:16:37;98699.47;;;20.70;42.19
17072;BME280;7731;50.720;6.912;2022-09-29T10:19:12;98696.34;;;22.31;37.59
17072;BME280;7731;50.720;6.912;2022-09-29T10:21:45;98696.88;;;21.89;39.05
17072;BME280;7731;50.720;6.912;2022-09-29T10:24:26;98699.97;;;22.15;38.76
17072;BME280;7731;50.720;6.912;2022-09-29T10:26:59;98709.22;;;19.19;47.47
17072;BME280;7731;50.720;6.912;2022-09-29T10:29:37;98723.06;;;18.37;50.39
17072;BME280;7731;50.720;6.912;2022-09-29T10:32:15;98702.88;;;22.05;38.96
17072;BME280;7731;50.720;6.912;2022-09-29T10:35:03;98699.97;;;22.79;39.41
17072;BME280;7731;50.720;6.912;2022-09-29T10:37:41;98705.66;;;22.18;39.51
17072;BME280;7731;50.720;6.912;2022-09-29T10:40:17;98699.91;;;23.01;36.83
17072;BME280;7731;50.720;6.912;2022-09-29T10:42:50;98706.94;;;24.72;33.41
17072;BME280;7731;50.720;6.912;2022-09-29T10:45:23;98706.69;;;24.14;34.55
17072;BME280;7731;50.720;6.912;2022-09-29T10:48:11;98732.13;;;20.89;41.86
17072;BME280;7731;50.720;6.912;2022-09-29T10:50:50;98722.13;;;20.93;43.07
17072;BME280;7731;50.720;6.912;2022-09-29T10:53:33;98722.09;;;20.55;45.19
17072;BME280;7731;50.720;6.912;2022-09-29T10:56:15;98724.84;;;20.38;44.73
17072;BME280;7731;50.720;6.912;2022-09-29T10:58:54;98706.19;;;23.35;36.98
17072;BME280;7731;50.720;6.912;2022-09-29T11:01:43;98725.56;;;20.70;42.34
17072;BME280;7731;50.720;6.912;2022-09-29T11:04:21;98722.31;;;21.96;42.00
17072;BME280;7731;50.720;6.912;2022-09-29T11:07:04;98725.31;;;21.48;40.26
17072;BME280;7731;50.720;6.912;2022-09-29T11:09:41;98727.25;;;20.16;44.59
17072;BME280;7731;50.720;6.912;2022-09-29T11:12:31;98722.69;;;21.33;41.19
17072;BME280;7731;50.720;6.912;2022-09-29T11:15:25;98731.34;;;21.48;40.47
17072;BME280;7731;50.720;6.912;2022-09-29T11:17:56;98731.88;;;20.06;42.65
17072;BME280;7731;50.720;6.912;2022-09-29T11:20:33;98734.69;;;19.57;46.01
17072;BME280;7731;50.720;6.912;2022-09-29T11:23:27;98731.13;;;20.44;43.19
17072;BME280;7731;50.720;6.912;2022-09-29T11:26:21;98745.50;;;18.80;49.08
17072;BME280;7731;50.720;6.912;2022-09-29T11:29:35;98740.91;;;18.16;51.37
17072;BME280;7731;50.720;6.912;2022-09-29T11:32:28;98749.91;;;17.26;54.17
17072;BME280;7731;50.720;6.912;2022-09-29T11:35:29;98746.88;;;17.05;55.75
17072;BME280;7731;50.720;6.912;2022-09-29T11:38:34;98748.19;;;16.37;59.42
17072;BME280;7731;50.720;6.912;2022-09-29T11:41:38;98748.72;;;16.76;56.96
17072;BME280;7731;50.720;6.912;2022-09-29T11:44:52;98752.34;;;16.30;57.47
17072;BME280;7731;50.720;6.912;2022-09-29T11:48:02;98759.31;;;16.65;54.88
17072;BME280;7731;50.720;6.912;2022-09-29T11:50:47;98756.84;;;17.18;52.99
17072;BME280;7731;50.720;6.912;2022-09-29T11:53:33;98747.69;;;18.09;50.17
17072;BME280;7731;50.720;6.912;2022-09-29T11:56:35;98751.81;;;17.85;49.36
17072;BME280;7731;50.720;6.912;2022-09-29T11:59:35;98764.34;;;16.31;54.01
17072;BME280;7731;50.720;6.912;2022-09-29T12:02:53;98765.69;;;16.53;53.51
17072;BME280;7731;50.720;6.912;2022-09-29T12:05:41;98768.06;;;16.64;51.32
17072;BME280;7731;50.720;6.912;2022-09-29T12:08:29;98757.84;;;16.27;52.21
17072;BME280;7731;50.720;6.912;2022-09-29T12:11:15;98762.16;;;16.08;52.48
17072;BME280;7731;50.720;6.912;2022-09-29T12:14:27;98757.41;;;15.66;54.88
17072;BME280;7731;50.720;6.912;2022-09-29T12:17:12;98762.91;;;16.18;53.03
17072;BME280;7731;50.720;6.912;2022-09-29T12:19:51;98761.75;;;17.29;50.30
17072;BME280;7731;50.720;6.912;2022-09-29T12:22:22;98762.97;;;16.54;51.13
17072;BME280;7731;50.720;6.912;2022-09-29T12:25:03;98758.25;;;16.40;53.32
17072;BME280;7731;50.720;6.912;2022-09-29T12:27:41;98756.19;;;17.42;47.80
17072;BME280;7731;50.720;6.912;2022-09-29T12:30:22;98751.38;;;17.29;48.18
17072;BME280;7731;50.720;6.912;2022-09-29T12:33:03;98760.44;;;16.99;47.34
17072;BME280;7731;50.720;6.912;2022-09-29T12:35:45;98754.28;;;17.00;47.44
17072;BME280;7731;50.720;6.912;2022-09-29T12:38:25;98760.66;;;16.51;49.88
17072;BME280;7731;50.720;6.912;2022-09-29T12:41:09;98761.41;;;15.98;51.19
17072;BME280;7731;50.720;6.912;2022-09-29T12:43:53;98749.66;;;16.21;50.04
17072;BME280;7731;50.720;6.912;2022-09-29T12:46:34;98756.47;;;16.22;49.61
17072;BME280;7731;50.720;6.912;2022-09-29T12:49:17;98761.53;;;15.59;52.99
17072;BME280;7731;50.720;6.912;2022-09-29T12:51:52;98755.97;;;16.55;49.85
17072;BME280;7731;50.720;6.912;2022-09-29T12:54:28;98763.34;;;16.95;48.62
17072;BME280;7731;50.720;6.912;2022-09-29T12:57:08;98747.38;;;16.90;47.56
17072;BME280;7731;50.720;6.912;2022-09-29T12:59:50;98752.91;;;17.40;45.99
17072;BME280;7731;50.720;6.912;2022-09-29T13:06:48;98757.03;;;16.44;47.94
17072;BME280;7731;50.720;6.912;2022-09-29T13:09:49;98754.69;;;16.23;49.49
17072;BME280;7731;50.720;6.912;2022-09-29T13:12:47;98759.38;;;16.55;48.56
17072;BME280;7731;50.720;6.912;2022-09-29T13:15:57;98766.00;;;16.50;48.84
17072;BME280;7731;50.720;6.912;2022-09-29T13:19:30;98761.19;;;16.09;48.36
17072;BME280;7731;50.720;6.912;2022-09-29T13:22:54;98760.50;;;16.71;47.15
17072;BME280;7731;50.720;6.912;2022-09-29T13:25:37;98766.13;;;16.30;47.86
17072;BME280;7731;50.720;6.912;2022-09-29T13:28:28;98759.75;;;15.97;49.37
17072;BME280;7731;50.720;6.912;2022-09-29T13:31:03;98761.59;;;16.14;48.61
17072;BME280;7731;50.720;6.912;2022-09-29T13:33:35;98759.88;;;16.23;49.07
17072;BME280;7731;50.720;6.912;2022-09-29T13:36:06;98761.16;;;16.37;48.64
17072;BME280;7731;50.720;6.912;2022-09-29T13:38:52;98757.13;;;17.14;46.40
17072;BME280;7731;50.720;6.912;2022-09-29T13:41:38;98765.28;;;17.20;45.85
17072;BME280;7731;50.720;6.912;2022-09-29T13:44:24;98760.53;;;17.15;45.14
17072;BME280;7731;50.720;6.912;2022-09-29T13:46:55;98767.66;;;16.77;44.99
17072;BME280;7731;50.720;6.912;2022-09-29T13:49:29;98767.50;;;15.69;47.09
17072;BME280;7731;50.720;6.912;2022-09-29T13:52:00;98768.00;;;15.82;46.92
17072;BME280;7731;50.720;6.912;2022-09-29T13:54:54;98767.72;;;15.85;47.49
17072;BME280;7731;50.720;6.912;2022-09-29T13:57:27;98770.03;;;16.52;46.53
17072;BME280;7731;50.720;6.912;2022-09-29T14:00:19;98781.63;;;16.76;47.57
17072;BME280;7731;50.720;6.912;2022-09-29T14:03:04;98766.75;;;17.22;45.35
17072;BME280;7731;50.720;6.912;2022-09-29T14:09:04;98775.56;;;17.03;45.93
17072;BME280;7731;50.720;6.912;2022-09-29T14:11:43;98769.78;;;17.36;44.52
17072;BME280;7731;50.720;6.912;2022-09-29T14:14:21;98776.41;;;17.12;45.76
17072;BME280;7731;50.720;6.912;2022-09-29T14:16:57;98774.34;;;17.42;44.92
17072;BME280;7731;50.720;6.912;2022-09-29T14:19:43;98783.13;;;17.23;44.41
17072;BME280;7731;50.720;6.912;2022-09-29T14:22:50;98787.53;;;17.48;43.36
17072;BME280;7731;50.720;6.912;2022-09-29T14:28:35;98791.00;;;17.31;45.25
17072;BME280;7731;50.720;6.912;2022-09-29T14:31:25;98792.38;;;16.99;46.28